Time;durP1;ratioP1;P1;durP2;ratioP2;P2;SDS_P1;SDS_P2;PMS_P1;PMS_P2;Temp;Humidity;BMP_temperature;BMP_pressure;BME280_temperature;BME280_humidity;BME280_pressure;Samples;Min_cycle;Max_cycle;Signal;HPM_P1;HPM_P2
2021/12/02 00:01:07;;;;;;;5.50;2.28;;;;;;;;;;4680939;30;20159;-77
2021/12/02 00:03:35;;;;;;;8.40;2.00;;;;;;;;;;4682707;30;20062;-77
2021/12/02 00:06:01;;;;;;;2.95;1.40;;;;;;;;;;4682856;30;20129;-75
2021/12/02 00:08:27;;;;;;;3.10;1.45;;;;;;;;;;4684908;30;20050;-76
2021/12/02 00:10:53;;;;;;;2.35;1.00;;;;;;;;;;4703872;30;20192;-79
2021/12/02 00:13:24;;;;;;;2.92;1.02;;;;;;;;;;4693458;30;20060;-80
2021/12/02 00:15:56;;;;;;;2.33;1.30;;;;;;;;;;4675272;30;20065;-79
2021/12/02 00:21:06;;;;;;;1.83;1.00;;;;;;;;;;4710851;30;20061;-80
2021/12/02 00:23:35;;;;;;;3.55;1.20;;;;;;;;;;4678025;30;20073;-79
2021/12/02 00:26:03;;;;;;;3.03;1.20;;;;;;;;;;4697412;30;20057;-78
2021/12/02 00:28:30;;;;;;;4.22;1.38;;;;;;;;;;4684840;30;20057;-79
2021/12/02 00:30:57;;;;;;;1.83;1.08;;;;;;;;;;4679840;30;20435;-78
2021/12/02 00:33:28;;;;;;;3.50;1.23;;;;;;;;;;4695501;30;20520;-78
2021/12/02 00:35:54;;;;;;;3.40;1.35;;;;;;;;;;4680555;30;20585;-78
2021/12/02 00:38:21;;;;;;;6.32;2.05;;;;;;;;;;4678816;30;20149;-78
2021/12/02 00:40:47;;;;;;;8.75;2.30;;;;;;;;;;4678494;30;20144;-77
2021/12/02 00:43:14;;;;;;;7.10;2.38;;;;;;;;;;4691895;30;20061;-78
2021/12/02 00:45:41;;;;;;;5.55;1.90;;;;;;;;;;4680577;30;20058;-78
2021/12/02 00:48:08;;;;;;;3.45;1.45;;;;;;;;;;4695274;30;20141;-77
2021/12/02 00:50:34;;;;;;;3.03;1.30;;;;;;;;;;4696788;30;20050;-77
2021/12/02 00:53:01;;;;;;;6.07;1.60;;;;;;;;;;4682732;30;20053;-77
2021/12/02 00:55:27;;;;;;;5.15;1.70;;;;;;;;;;4682427;30;20346;-76
2021/12/02 00:57:54;;;;;;;6.60;1.70;;;;;;;;;;4695969;30;20129;-76
2021/12/02 01:00:20;;;;;;;5.85;1.90;;;;;;;;;;4680952;30;20064;-77
2021/12/02 01:02:49;;;;;;;7.03;1.65;;;;;;;;;;4682781;30;20050;-77
2021/12/02 01:05:15;;;;;;;2.80;1.42;;;;;;;;;;4680864;30;20081;-77
2021/12/02 01:07:43;;;;;;;5.22;1.50;;;;;;;;;;4686753;30;20388;-77
2021/12/02 01:10:09;;;;;;;6.80;2.13;;;;;;;;;;4685265;30;20167;-76
2021/12/02 01:12:36;;;;;;;5.55;1.50;;;;;;;;;;4704712;30;20137;-76
2021/12/02 01:15:04;;;;;;;2.95;1.20;;;;;;;;;;4686062;30;20203;-76
2021/12/02 01:17:31;;;;;;;4.82;1.80;;;;;;;;;;4684818;30;20058;-75
2021/12/02 01:19:57;;;;;;;6.65;1.70;;;;;;;;;;4685798;30;20116;-76
2021/12/02 01:22:25;;;;;;;4.43;1.42;;;;;;;;;;4686420;30;20057;-77
2021/12/02 01:24:51;;;;;;;4.57;1.50;;;;;;;;;;4685182;30;20058;-76
2021/12/02 01:27:21;;;;;;;4.75;1.45;;;;;;;;;;4684465;30;20425;-76
2021/12/02 01:29:48;;;;;;;4.30;1.50;;;;;;;;;;4683402;30;20141;-75
2021/12/02 01:32:15;;;;;;;5.22;1.40;;;;;;;;;;4684490;30;20448;-76
2021/12/02 01:34:45;;;;;;;4.57;1.90;;;;;;;;;;4684513;30;20058;-75
2021/12/02 01:37:12;;;;;;;4.63;1.60;;;;;;;;;;4684020;30;20125;-76
2021/12/02 01:39:38;;;;;;;6.05;1.60;;;;;;;;;;4684220;30;20086;-76
2021/12/02 01:42:07;;;;;;;8.00;1.70;;;;;;;;;;4683845;30;20417;-75
2021/12/02 01:44:39;;;;;;;3.90;1.30;;;;;;;;;;4685686;30;20453;-75
2021/12/02 01:47:11;;;;;;;6.78;1.80;;;;;;;;;;4685217;30;21328;-75
2021/12/02 01:49:40;;;;;;;2.20;1.33;;;;;;;;;;4684580;30;20057;-75
2021/12/02 01:52:09;;;;;;;3.10;1.35;;;;;;;;;;4680089;30;20054;-75
2021/12/02 01:54:42;;;;;;;4.75;1.20;;;;;;;;;;4688471;30;20476;-75
2021/12/02 01:57:08;;;;;;;1.13;0.80;;;;;;;;;;4684648;30;20155;-75
2021/12/02 01:59:39;;;;;;;3.03;1.15;;;;;;;;;;4685286;30;20120;-75
2021/12/02 02:02:10;;;;;;;4.20;1.20;;;;;;;;;;4684418;30;20085;-76
2021/12/02 02:04:36;;;;;;;3.15;1.38;;;;;;;;;;4683736;30;20077;-75
2021/12/02 02:07:06;;;;;;;4.82;1.55;;;;;;;;;;4696970;30;20065;-75
2021/12/02 02:09:33;;;;;;;2.60;1.27;;;;;;;;;;4684380;30;20265;-76
2021/12/02 02:12:04;;;;;;;3.10;1.60;;;;;;;;;;4683193;30;20120;-76
2021/12/02 02:14:31;;;;;;;3.13;1.67;;;;;;;;;;4683890;30;20119;-74
2021/12/02 02:17:00;;;;;;;3.30;1.30;;;;;;;;;;4684410;30;20070;-75
2021/12/02 02:19:30;;;;;;;1.70;1.23;;;;;;;;;;4684119;30;20066;-75
2021/12/02 02:21:56;;;;;;;5.97;1.42;;;;;;;;;;4683505;30;20057;-74
2021/12/02 02:24:23;;;;;;;5.47;1.40;;;;;;;;;;4683991;30;20127;-75
2021/12/02 02:26:49;;;;;;;2.60;1.30;;;;;;;;;;4684043;30;20054;-74
2021/12/02 02:29:18;;;;;;;3.05;1.85;;;;;;;;;;4683971;30;20061;-75
2021/12/02 02:31:44;;;;;;;3.92;1.40;;;;;;;;;;4684697;30;20062;-74
2021/12/02 02:34:10;;;;;;;4.32;1.30;;;;;;;;;;4683864;30;20073;-76
2021/12/02 02:36:40;;;;;;;1.70;1.17;;;;;;;;;;4683636;30;20065;-78
2021/12/02 02:39:06;;;;;;;2.85;1.10;;;;;;;;;;4684513;30;20058;-79
2021/12/02 02:41:35;;;;;;;3.95;1.20;;;;;;;;;;4685372;30;20575;-76
2021/12/02 02:44:01;;;;;;;1.20;1.00;;;;;;;;;;4701811;30;20046;-76
2021/12/02 02:46:29;;;;;;;3.42;1.10;;;;;;;;;;4690971;30;20819;-79
2021/12/02 02:53:18;;;;;;;4.38;1.10;;;;;;;;;;4655297;30;20381;-85
2021/12/02 02:56:07;;;;;;;3.17;1.27;;;;;;;;;;4653593;30;20133;-81
2021/12/02 03:12:01;;;;;;;2.33;1.35;;;;;;;;;;4678941;30;20399;-78
2021/12/02 03:14:34;;;;;;;3.47;1.20;;;;;;;;;;4682430;30;20492;-78
2021/12/02 03:17:00;;;;;;;2.03;1.05;;;;;;;;;;4680504;30;20066;-77
2021/12/02 03:19:27;;;;;;;1.70;0.90;;;;;;;;;;4684343;30;20081;-78
2021/12/02 03:21:54;;;;;;;2.15;1.02;;;;;;;;;;4682441;30;20101;-77
2021/12/02 03:24:21;;;;;;;2.53;1.10;;;;;;;;;;4685032;30;20163;-77
2021/12/02 03:26:48;;;;;;;4.45;1.20;;;;;;;;;;4708492;30;20380;-79
2021/12/02 03:29:15;;;;;;;4.30;1.20;;;;;;;;;;4707780;30;20068;-76
2021/12/02 03:31:41;;;;;;;3.88;1.48;;;;;;;;;;4695892;30;20058;-76
2021/12/02 03:34:07;;;;;;;3.33;1.23;;;;;;;;;;4681702;30;20046;-76
2021/12/02 03:36:34;;;;;;;2.45;1.23;;;;;;;;;;4682538;30;20077;-77
2021/12/02 03:39:01;;;;;;;2.80;1.50;;;;;;;;;;4682355;30;20408;-76
2021/12/02 03:41:27;;;;;;;3.83;1.33;;;;;;;;;;4681284;30;20066;-78
2021/12/02 03:43:53;;;;;;;4.43;1.80;;;;;;;;;;4682761;30;20074;-76
2021/12/02 03:46:22;;;;;;;4.53;1.48;;;;;;;;;;4689320;30;20194;-77
2021/12/02 03:48:49;;;;;;;6.55;1.65;;;;;;;;;;4682777;30;20086;-78
2021/12/02 03:51:17;;;;;;;2.75;1.33;;;;;;;;;;4666848;30;20116;-76
2021/12/02 03:53:43;;;;;;;3.17;1.27;;;;;;;;;;4691626;30;20419;-76
2021/12/02 03:56:09;;;;;;;4.40;1.30;;;;;;;;;;4683388;30;20061;-76
2021/12/02 03:58:36;;;;;;;2.65;1.02;;;;;;;;;;4682385;30;20121;-76
2021/12/02 04:01:04;;;;;;;2.33;1.17;;;;;;;;;;4687084;30;20070;-76
2021/12/02 04:03:30;;;;;;;2.50;1.27;;;;;;;;;;4708021;30;20077;-80
2021/12/02 04:05:57;;;;;;;3.85;1.10;;;;;;;;;;4683287;30;20054;-82
2021/12/02 04:18:45;;;;;;;1.63;0.90;;;;;;;;;;4538163;31;20366;-82
2021/12/02 04:21:11;;;;;;;2.25;0.70;;;;;;;;;;4581867;31;20056;-80
2021/12/02 04:23:38;;;;;;;0.70;0.63;;;;;;;;;;4585749;31;20138;-81
2021/12/02 04:26:04;;;;;;;1.08;0.75;;;;;;;;;;4599831;31;20056;-79
2021/12/02 04:28:30;;;;;;;1.00;0.70;;;;;;;;;;4597112;31;20142;-78
2021/12/02 04:30:56;;;;;;;1.17;0.75;;;;;;;;;;4645675;30;20062;-78
2021/12/02 04:33:23;;;;;;;1.23;0.93;;;;;;;;;;4648035;30;20082;-78
2021/12/02 04:35:49;;;;;;;2.42;1.10;;;;;;;;;;4647861;30;20065;-78
2021/12/02 04:38:15;;;;;;;2.53;0.93;;;;;;;;;;4656009;30;20062;-78
2021/12/02 04:40:42;;;;;;;3.60;1.30;;;;;;;;;;4644618;30;20469;-79
2021/12/02 04:43:08;;;;;;;5.90;1.80;;;;;;;;;;4656388;30;20059;-79
2021/12/02 04:45:36;;;;;;;6.47;1.85;;;;;;;;;;4661831;30;20544;-79
2021/12/02 04:48:02;;;;;;;5.25;1.48;;;;;;;;;;4673999;30;20150;-82
2021/12/02 04:50:29;;;;;;;1.88;1.00;;;;;;;;;;4654659;30;20128;-82
2021/12/02 04:52:55;;;;;;;3.00;1.20;;;;;;;;;;4651124;30;20051;-80
2021/12/02 04:55:22;;;;;;;3.60;1.10;;;;;;;;;;4658486;30;20058;-77
2021/12/02 04:57:48;;;;;;;2.55;1.10;;;;;;;;;;4674423;30;20055;-78
2021/12/02 05:00:15;;;;;;;3.80;1.20;;;;;;;;;;4659021;30;20079;-80
2021/12/02 05:06:42;;;;;;;5.25;1.27;;;;;;;;;;4634861;31;20059;-83
2021/12/02 05:09:17;;;;;;;1.45;0.95;;;;;;;;;;4664747;30;20058;-82
2021/12/02 05:11:44;;;;;;;4.00;1.05;;;;;;;;;;4652579;30;20094;-80
2021/12/02 05:14:10;;;;;;;2.55;1.17;;;;;;;;;;4655268;30;20138;-80
2021/12/02 05:16:37;;;;;;;2.08;1.50;;;;;;;;;;4669655;30;20078;-80
2021/12/02 05:19:03;;;;;;;5.53;3.25;;;;;;;;;;4682232;30;20208;-80
2021/12/02 05:21:30;;;;;;;2.75;1.00;;;;;;;;;;4684940;30;20504;-78
2021/12/02 05:23:56;;;;;;;1.17;1.08;;;;;;;;;;4701433;30;20376;-78
2021/12/02 05:26:23;;;;;;;3.50;1.00;;;;;;;;;;4683794;30;20046;-78
2021/12/02 05:28:50;;;;;;;3.45;1.27;;;;;;;;;;4683568;30;20507;-78
2021/12/02 05:31:16;;;;;;;3.45;1.30;;;;;;;;;;4684311;30;20057;-78
2021/12/02 05:33:42;;;;;;;1.52;0.98;;;;;;;;;;4685579;30;20459;-78
2021/12/02 05:36:09;;;;;;;1.75;1.02;;;;;;;;;;4681214;30;20049;-79
2021/12/02 05:38:35;;;;;;;1.23;0.75;;;;;;;;;;4683722;30;20054;-78
2021/12/02 05:41:03;;;;;;;4.65;1.15;;;;;;;;;;4687546;30;20123;-77
2021/12/02 05:43:29;;;;;;;1.10;1.00;;;;;;;;;;4684309;30;20050;-79
2021/12/02 05:45:55;;;;;;;1.95;0.93;;;;;;;;;;4687584;30;20057;-80
2021/12/02 05:48:21;;;;;;;1.88;0.90;;;;;;;;;;4684048;30;20058;-78
2021/12/02 05:50:48;;;;;;;5.00;1.15;;;;;;;;;;4691406;30;20069;-77
2021/12/02 05:53:14;;;;;;;2.13;0.93;;;;;;;;;;4683188;30;20065;-78
2021/12/02 05:55:41;;;;;;;5.35;1.42;;;;;;;;;;4675860;30;20060;-78
2021/12/02 05:58:07;;;;;;;3.42;1.38;;;;;;;;;;4683963;30;20062;-78
2021/12/02 06:00:36;;;;;;;5.93;1.70;;;;;;;;;;4682408;30;20073;-77
2021/12/02 06:03:02;;;;;;;3.75;1.20;;;;;;;;;;4685423;30;20496;-77
2021/12/02 06:05:28;;;;;;;1.10;0.85;;;;;;;;;;4683837;30;20089;-76
2021/12/02 06:07:58;;;;;;;1.45;1.00;;;;;;;;;;4684267;30;20147;-76
2021/12/02 06:10:25;;;;;;;2.67;1.10;;;;;;;;;;4684852;30;20062;-78
2021/12/02 06:12:51;;;;;;;2.47;1.00;;;;;;;;;;4687391;30;20054;-74
2021/12/02 06:15:17;;;;;;;2.65;0.90;;;;;;;;;;4685009;30;20062;-75
2021/12/02 06:17:43;;;;;;;2.97;1.00;;;;;;;;;;4683121;30;20503;-74
2021/12/02 06:20:10;;;;;;;2.58;1.17;;;;;;;;;;4683577;30;20058;-76
2021/12/02 06:22:37;;;;;;;4.47;1.20;;;;;;;;;;4684055;30;20062;-77
2021/12/02 06:34:12;;;;;;;1.40;0.90;;;;;;;;;;4667457;30;20065;-83
2021/12/02 06:36:38;;;;;;;1.60;0.90;;;;;;;;;;4666510;30;20062;-81
2021/12/02 06:39:06;;;;;;;3.20;1.10;;;;;;;;;;4678193;30;20058;-81
2021/12/02 06:41:32;;;;;;;3.63;1.35;;;;;;;;;;4683306;30;20431;-80
2021/12/02 06:43:58;;;;;;;3.78;1.73;;;;;;;;;;4685589;30;20377;-79
2021/12/02 06:46:24;;;;;;;3.63;1.65;;;;;;;;;;4712013;30;20360;-78
2021/12/02 06:48:51;;;;;;;4.00;1.30;;;;;;;;;;4683308;30;20054;-79
2021/12/02 06:51:19;;;;;;;2.25;1.33;;;;;;;;;;4682545;30;20156;-78
2021/12/02 06:53:45;;;;;;;2.00;1.23;;;;;;;;;;4681097;30;20480;-77
2021/12/02 06:56:11;;;;;;;4.03;1.30;;;;;;;;;;4683023;30;20060;-78
2021/12/02 06:58:37;;;;;;;2.40;1.10;;;;;;;;;;4699673;30;20460;-77
2021/12/02 07:01:04;;;;;;;2.13;1.00;;;;;;;;;;4682882;30;20117;-79
2021/12/02 07:03:30;;;;;;;2.30;1.10;;;;;;;;;;4682308;30;20493;-76
2021/12/02 07:05:56;;;;;;;3.50;1.13;;;;;;;;;;4683846;30;20086;-78
2021/12/02 07:08:23;;;;;;;2.03;0.90;;;;;;;;;;4692687;30;20054;-77
2021/12/02 07:10:50;;;;;;;1.42;0.90;;;;;;;;;;4682554;30;20066;-76
2021/12/02 07:13:17;;;;;;;3.17;1.30;;;;;;;;;;4671398;30;20050;-77
2021/12/02 07:15:49;;;;;;;4.68;1.60;;;;;;;;;;4683731;30;20461;-76
2021/12/02 07:18:16;;;;;;;3.92;1.50;;;;;;;;;;4681025;30;20062;-75
2021/12/02 07:20:43;;;;;;;3.30;1.33;;;;;;;;;;4683931;30;20085;-76
2021/12/02 07:23:09;;;;;;;4.55;1.70;;;;;;;;;;4683470;30;20072;-75
2021/12/02 07:25:38;;;;;;;3.75;1.42;;;;;;;;;;4682354;30;20065;-75
2021/12/02 07:28:05;;;;;;;3.03;1.17;;;;;;;;;;4683114;30;20187;-76
2021/12/02 07:30:31;;;;;;;3.08;1.10;;;;;;;;;;4681974;30;20061;-75
2021/12/02 07:32:58;;;;;;;2.28;1.30;;;;;;;;;;4682806;30;20118;-75
2021/12/02 07:35:25;;;;;;;1.85;1.23;;;;;;;;;;4682493;30;20057;-75
2021/12/02 07:37:52;;;;;;;2.50;1.10;;;;;;;;;;4684431;30;20085;-75
2021/12/02 07:40:19;;;;;;;2.30;1.08;;;;;;;;;;4683715;30;20050;-74
2021/12/02 07:42:46;;;;;;;1.60;1.15;;;;;;;;;;4682167;30;20080;-75
2021/12/02 07:45:23;;;;;;;1.75;1.23;;;;;;;;;;4681929;30;20142;-80
2021/12/02 07:47:52;;;;;;;3.08;1.00;;;;;;;;;;4686877;30;20058;-81
2021/12/02 07:50:28;;;;;;;2.63;1.13;;;;;;;;;;4711997;30;20208;-77
2021/12/02 07:53:19;;;;;;;1.48;1.23;;;;;;;;;;4692769;30;20065;-82
2021/12/02 07:55:56;;;;;;;4.55;1.38;;;;;;;;;;4673602;30;20181;-80
2021/12/02 07:58:32;;;;;;;3.83;1.50;;;;;;;;;;4696364;30;20372;-80
2021/12/02 08:00:59;;;;;;;3.17;1.38;;;;;;;;;;4693691;30;20076;-81
2021/12/02 08:03:29;;;;;;;3.22;1.20;;;;;;;;;;4686980;30;20057;-80
2021/12/02 08:05:56;;;;;;;4.13;1.20;;;;;;;;;;4699012;30;20467;-78
2021/12/02 08:08:22;;;;;;;2.15;1.08;;;;;;;;;;4696953;30;20490;-80
2021/12/02 08:10:48;;;;;;;3.60;1.50;;;;;;;;;;4698548;30;20065;-81
2021/12/02 08:13:14;;;;;;;3.35;1.33;;;;;;;;;;4698041;30;20199;-78
2021/12/02 08:15:41;;;;;;;4.07;1.60;;;;;;;;;;4699761;30;20475;-80
2021/12/02 08:18:07;;;;;;;3.92;1.40;;;;;;;;;;4694432;30;20104;-80
2021/12/02 08:20:35;;;;;;;2.03;1.17;;;;;;;;;;4687127;30;20118;-79
2021/12/02 08:23:01;;;;;;;2.90;1.00;;;;;;;;;;4688022;30;20045;-78
2021/12/02 08:25:28;;;;;;;3.28;1.15;;;;;;;;;;4689945;30;20124;-79
2021/12/02 08:27:55;;;;;;;3.97;1.20;;;;;;;;;;4698078;30;20426;-80
2021/12/02 08:30:24;;;;;;;4.28;1.02;;;;;;;;;;4686108;30;20099;-77
2021/12/02 08:32:51;;;;;;;1.15;1.00;;;;;;;;;;4683927;30;20525;-79
2021/12/02 08:35:18;;;;;;;2.33;0.95;;;;;;;;;;4698304;30;20062;-77
2021/12/02 08:37:46;;;;;;;5.05;1.42;;;;;;;;;;4680704;30;20061;-77
2021/12/02 08:40:13;;;;;;;5.22;1.17;;;;;;;;;;4675243;30;20345;-79
2021/12/02 08:42:40;;;;;;;2.72;1.10;;;;;;;;;;4689598;30;20060;-77
2021/12/02 08:45:06;;;;;;;2.25;1.02;;;;;;;;;;4684571;30;20050;-76
2021/12/02 08:47:32;;;;;;;1.65;0.80;;;;;;;;;;4682796;30;20066;-77
2021/12/02 08:49:59;;;;;;;2.40;1.10;;;;;;;;;;4682958;30;20090;-78
2021/12/02 08:52:26;;;;;;;5.13;1.30;;;;;;;;;;4680610;30;20145;-76
2021/12/02 08:54:53;;;;;;;4.47;1.92;;;;;;;;;;4698052;30;20140;-77
2021/12/02 08:57:20;;;;;;;4.30;1.27;;;;;;;;;;4696340;30;20471;-77
2021/12/02 08:59:46;;;;;;;1.95;1.00;;;;;;;;;;4681940;30;20448;-81
2021/12/02 09:02:12;;;;;;;2.15;1.10;;;;;;;;;;4683065;30;20061;-77
2021/12/02 09:04:39;;;;;;;2.28;1.05;;;;;;;;;;4694663;30;20046;-78
2021/12/02 09:07:06;;;;;;;1.67;1.25;;;;;;;;;;4684355;30;20371;-79
2021/12/02 09:09:32;;;;;;;1.77;0.75;;;;;;;;;;4681138;30;20054;-80
2021/12/02 09:11:58;;;;;;;2.60;1.33;;;;;;;;;;4679410;30;20049;-77
2021/12/02 09:14:25;;;;;;;3.55;1.00;;;;;;;;;;4667971;30;20069;-77
2021/12/02 09:16:51;;;;;;;1.88;0.80;;;;;;;;;;4680284;30;20050;-80
2021/12/02 09:19:18;;;;;;;3.15;0.85;;;;;;;;;;4681371;30;20090;-76
2021/12/02 09:21:44;;;;;;;1.75;0.85;;;;;;;;;;4681102;30;20137;-81
2021/12/02 09:24:18;;;;;;;2.88;0.90;;;;;;;;;;4679256;30;20057;-79
2021/12/02 09:26:45;;;;;;;1.15;0.93;;;;;;;;;;4681935;30;20062;-76
2021/12/02 09:29:11;;;;;;;3.42;1.13;;;;;;;;;;4696298;30;20081;-78
2021/12/02 09:31:37;;;;;;;6.30;1.60;;;;;;;;;;4685179;30;20101;-79
2021/12/02 09:34:03;;;;;;;2.47;0.90;;;;;;;;;;4684525;30;20054;-77
2021/12/02 09:36:30;;;;;;;2.80;1.15;;;;;;;;;;4699664;30;20081;-77
2021/12/02 09:38:56;;;;;;;4.45;1.30;;;;;;;;;;4685468;30;20061;-76
2021/12/02 09:41:22;;;;;;;4.70;1.60;;;;;;;;;;4684461;30;20061;-78
2021/12/02 09:43:48;;;;;;;4.50;1.65;;;;;;;;;;4685277;30;20137;-78
2021/12/02 09:46:15;;;;;;;3.95;1.77;;;;;;;;;;4700920;30;20148;-76
2021/12/02 09:48:41;;;;;;;5.93;1.70;;;;;;;;;;4685535;30;20076;-78
2021/12/02 09:51:10;;;;;;;10.02;2.00;;;;;;;;;;4683735;30;20112;-81
2021/12/02 09:53:52;;;;;;;4.20;1.40;;;;;;;;;;4682428;30;20050;-73
2021/12/02 09:56:29;;;;;;;4.68;1.25;;;;;;;;;;4682679;30;20136;-72
2021/12/02 09:59:02;;;;;;;3.20;1.00;;;;;;;;;;4699415;30;20074;-69
2021/12/02 10:01:44;;;;;;;4.07;1.30;;;;;;;;;;4684995;30;20132;-75
2021/12/02 10:04:12;;;;;;;0.93;0.93;;;;;;;;;;4684957;30;20066;-71
2021/12/02 10:06:41;;;;;;;3.25;1.08;;;;;;;;;;4685624;30;20081;-70
2021/12/02 10:09:12;;;;;;;1.42;1.17;;;;;;;;;;4685309;30;20057;-70
2021/12/02 10:11:45;;;;;;;1.00;1.00;;;;;;;;;;4670767;30;20461;-72
2021/12/02 10:14:26;;;;;;;2.40;1.40;;;;;;;;;;4682945;30;20062;-71
2021/12/02 10:17:06;;;;;;;1.50;1.25;;;;;;;;;;4685166;30;20076;-73
2021/12/02 10:19:33;;;;;;;2.47;1.25;;;;;;;;;;4684268;30;20046;-72
2021/12/02 10:22:11;;;;;;;2.30;1.58;;;;;;;;;;4684065;30;20104;-73
2021/12/02 10:24:44;;;;;;;2.80;1.40;;;;;;;;;;4683793;30;20096;-76
2021/12/02 10:27:11;;;;;;;2.13;1.50;;;;;;;;;;4692284;30;20463;-71
2021/12/02 10:29:39;;;;;;;2.42;1.17;;;;;;;;;;4676923;30;20142;-73
2021/12/02 10:32:13;;;;;;;4.85;1.33;;;;;;;;;;4675899;30;20140;-78
2021/12/02 10:34:49;;;;;;;2.53;1.20;;;;;;;;;;4684941;30;20129;-80
2021/12/02 10:37:18;;;;;;;3.42;1.40;;;;;;;;;;4684392;30;20092;-76
2021/12/02 10:39:54;;;;;;;4.80;2.00;;;;;;;;;;4685450;30;20046;-80
2021/12/02 10:42:21;;;;;;;3.47;1.50;;;;;;;;;;4683179;30;20053;-79
2021/12/02 10:44:48;;;;;;;3.85;1.45;;;;;;;;;;4683446;30;20064;-80
2021/12/02 10:47:15;;;;;;;2.97;1.60;;;;;;;;;;4694915;30;20080;-76
2021/12/02 10:49:47;;;;;;;3.42;1.60;;;;;;;;;;4678416;30;20061;-79
2021/12/02 10:52:18;;;;;;;1.95;1.27;;;;;;;;;;4684256;30;20086;-77
2021/12/02 10:54:46;;;;;;;6.43;1.55;;;;;;;;;;4682053;30;20140;-79
2021/12/02 10:57:13;;;;;;;4.78;1.67;;;;;;;;;;4667487;30;20074;-77
2021/12/02 10:59:40;;;;;;;2.78;1.40;;;;;;;;;;4682084;30;20057;-76
2021/12/02 11:02:08;;;;;;;6.70;1.63;;;;;;;;;;4683115;30;20100;-78
2021/12/02 11:04:36;;;;;;;7.68;1.85;;;;;;;;;;4686451;30;20057;-79
2021/12/02 11:07:02;;;;;;;4.55;1.65;;;;;;;;;;4696492;30;20045;-81
2021/12/02 11:09:30;;;;;;;2.78;1.45;;;;;;;;;;4685600;30;20321;-78
2021/12/02 11:12:11;;;;;;;6.53;1.73;;;;;;;;;;4691004;30;20050;-78
2021/12/02 11:14:41;;;;;;;4.13;1.50;;;;;;;;;;4683250;30;20081;-79
2021/12/02 11:17:12;;;;;;;2.03;1.35;;;;;;;;;;4683606;30;20070;-79
2021/12/02 11:19:38;;;;;;;1.85;1.08;;;;;;;;;;4683708;30;20054;-79
2021/12/02 11:22:06;;;;;;;2.88;1.30;;;;;;;;;;4683695;30;20192;-81
2021/12/02 11:24:33;;;;;;;5.35;1.33;;;;;;;;;;4684077;30;20458;-83
2021/12/02 11:27:19;;;;;;;3.55;1.20;;;;;;;;;;4683968;30;20058;-80
2021/12/02 11:29:57;;;;;;;2.05;1.13;;;;;;;;;;4673835;30;20101;-82
2021/12/02 11:32:25;;;;;;;3.75;1.63;;;;;;;;;;4701775;30;20543;-78
2021/12/02 11:35:12;;;;;;;1.92;1.20;;;;;;;;;;4683257;30;20151;-82
2021/12/02 11:37:41;;;;;;;3.13;1.30;;;;;;;;;;4684006;30;20108;-83
2021/12/02 11:40:12;;;;;;;3.42;1.27;;;;;;;;;;4684042;30;20502;-84
2021/12/02 11:42:39;;;;;;;5.85;1.52;;;;;;;;;;4669594;30;20054;-85
2021/12/02 11:45:06;;;;;;;2.88;1.05;;;;;;;;;;4683800;30;20201;-83
2021/12/02 11:47:32;;;;;;;2.35;1.10;;;;;;;;;;4699048;30;20116;-82
2021/12/02 11:49:59;;;;;;;1.98;1.20;;;;;;;;;;4681991;30;20102;-85
2021/12/02 11:52:26;;;;;;;4.40;1.50;;;;;;;;;;4666504;30;20054;-83
2021/12/02 11:54:58;;;;;;;3.33;1.30;;;;;;;;;;4672670;30;20064;-83
2021/12/02 11:57:33;;;;;;;3.63;1.48;;;;;;;;;;4666696;30;20050;-85
2021/12/02 12:00:41;;;;;;;2.90;1.40;;;;;;;;;;4672976;30;20042;-85
2021/12/02 12:17:13;;;;;;;4.05;1.30;;;;;;;;;;4630344;30;20059;-83
2021/12/02 12:19:41;;;;;;;4.60;1.60;;;;;;;;;;4628567;30;20121;-79
2021/12/02 12:26:17;;;;;;;;;;;;;;;;;;;;;
2021/12/02 13:01:28;;;;;;;3.53;1.15;;;;;;;;;;4596640;31;20135;-81
2021/12/02 13:04:07;;;;;;;1.70;1.02;;;;;;;;;;4609385;30;20126;-80
2021/12/02 13:06:47;;;;;;;4.53;1.40;;;;;;;;;;4646169;30;20058;-79
2021/12/02 13:09:34;;;;;;;2.15;1.75;;;;;;;;;;4669229;30;20053;-78
2021/12/02 13:12:03;;;;;;;2.50;1.70;;;;;;;;;;4684751;30;20073;-81
2021/12/02 13:14:30;;;;;;;3.53;1.40;;;;;;;;;;4684937;30;20054;-80
2021/12/02 13:17:03;;;;;;;3.20;1.48;;;;;;;;;;4670983;30;20571;-81
2021/12/02 13:19:29;;;;;;;2.47;1.50;;;;;;;;;;4685155;30;20145;-82
2021/12/02 13:21:59;;;;;;;3.72;1.50;;;;;;;;;;4686202;30;20054;-82
2021/12/02 13:24:35;;;;;;;2.05;1.10;;;;;;;;;;4686142;30;20057;-82
2021/12/02 13:27:02;;;;;;;1.55;1.23;;;;;;;;;;4686162;30;20111;-81
2021/12/02 13:29:33;;;;;;;2.22;1.20;;;;;;;;;;4686267;30;20053;-81
2021/12/02 13:32:05;;;;;;;2.97;1.13;;;;;;;;;;4691595;30;20049;-81
2021/12/02 13:34:33;;;;;;;2.67;1.20;;;;;;;;;;4688434;30;20062;-82
2021/12/02 13:37:09;;;;;;;2.70;1.40;;;;;;;;;;4686158;30;20069;-83
2021/12/02 13:39:40;;;;;;;3.50;1.17;;;;;;;;;;4686618;30;20096;-80
2021/12/02 13:42:11;;;;;;;1.50;1.23;;;;;;;;;;4684838;30;20046;-79
2021/12/02 13:48:21;;;;;;;3.30;1.42;;;;;;;;;;4674199;30;20045;-79
2021/12/02 14:01:44;;;;;;;1.17;0.80;;;;;;;;;;4634854;30;20054;-81
2021/12/02 14:12:38;;;;;;;;;;;;;;;;;;;;;
2021/12/02 14:16:12;;;;;;;2.60;1.05;;;;;;;;;;4517821;31;20141;-81
2021/12/02 14:19:10;;;;;;;2.22;0.90;;;;;;;;;;4487234;31;20112;-83
2021/12/02 14:22:21;;;;;;;1.50;1.10;;;;;;;;;;4500818;31;20147;-80
2021/12/02 14:43:15;;;;;;;2.53;1.80;;;;;;;;;;5127182;27;20129;-82
2021/12/02 14:45:41;;;;;;;2.50;1.55;;;;;;;;;;5063197;28;20448;-79
2021/12/02 14:48:21;;;;;;;2.95;1.52;;;;;;;;;;5061773;28;20127;-75
2021/12/02 14:51:00;;;;;;;4.55;1.80;;;;;;;;;;5111426;28;20047;-76
2021/12/02 14:53:31;;;;;;;1.92;1.42;;;;;;;;;;5087683;28;20054;-86
2021/12/02 14:55:59;;;;;;;2.78;1.50;;;;;;;;;;5103053;28;20067;-76
2021/12/02 14:58:29;;;;;;;4.90;1.50;;;;;;;;;;5076532;28;20101;-74
2021/12/02 15:01:14;;;;;;;2.20;1.50;;;;;;;;;;5089109;28;20110;-74
2021/12/02 15:03:41;;;;;;;3.00;1.90;;;;;;;;;;5074429;28;20040;-80
2021/12/02 15:06:07;;;;;;;3.15;1.90;;;;;;;;;;5074549;28;20324;-72
2021/12/02 15:08:34;;;;;;;3.97;2.50;;;;;;;;;;5090595;28;20040;-74
2021/12/02 15:11:01;;;;;;;4.43;2.80;;;;;;;;;;5073065;28;20093;-79
2021/12/02 15:13:38;;;;;;;4.10;2.60;;;;;;;;;;5093979;28;20040;-76
2021/12/02 15:16:05;;;;;;;5.72;2.45;;;;;;;;;;5074357;28;20127;-76
2021/12/02 15:18:31;;;;;;;3.65;2.10;;;;;;;;;;5072709;28;20101;-77
2021/12/02 15:21:00;;;;;;;4.68;3.10;;;;;;;;;;5072738;28;20068;-77
2021/12/02 15:23:31;;;;;;;5.88;5.28;;;;;;;;;;5084468;28;20069;-76
2021/12/02 15:26:08;;;;;;;4.28;3.38;;;;;;;;;;5078252;28;20055;-75
2021/12/02 15:28:50;;;;;;;4.40;3.13;;;;;;;;;;5068522;28;20072;-72
2021/12/02 15:31:17;;;;;;;4.00;2.30;;;;;;;;;;5090051;28;20056;-75
2021/12/02 15:33:45;;;;;;;3.60;2.30;;;;;;;;;;5072977;28;20106;-77
2021/12/02 15:36:12;;;;;;;2.83;2.22;;;;;;;;;;5071692;28;20379;-77
2021/12/02 15:38:40;;;;;;;3.30;2.08;;;;;;;;;;5090513;28;20059;-76
2021/12/02 15:41:07;;;;;;;4.63;2.70;;;;;;;;;;5068741;28;20052;-77
2021/12/02 15:43:39;;;;;;;5.38;2.25;;;;;;;;;;5067502;28;20383;-76
2021/12/02 15:46:06;;;;;;;4.13;2.35;;;;;;;;;;5068471;28;20127;-77
2021/12/02 15:48:33;;;;;;;3.78;2.30;;;;;;;;;;5070315;28;20052;-76
2021/12/02 15:50:59;;;;;;;3.90;2.28;;;;;;;;;;5068112;28;20048;-76
2021/12/02 15:53:25;;;;;;;5.38;2.30;;;;;;;;;;5080628;28;20058;-75
2021/12/02 15:55:53;;;;;;;3.47;1.83;;;;;;;;;;5039646;28;20040;-75
2021/12/02 15:58:19;;;;;;;4.90;1.90;;;;;;;;;;5075700;28;20041;-75
2021/12/02 16:00:49;;;;;;;2.70;1.83;;;;;;;;;;5058051;28;20044;-76
2021/12/02 16:03:30;;;;;;;3.63;2.20;;;;;;;;;;5069920;28;20429;-76
2021/12/02 16:13:43;;;;;;;5.65;3.30;;;;;;;;;;5060949;28;20469;-76
2021/12/02 16:16:09;;;;;;;5.55;3.50;;;;;;;;;;5076563;28;20048;-76
2021/12/02 16:18:36;;;;;;;5.78;3.35;;;;;;;;;;5076212;28;20048;-75
2021/12/02 16:21:07;;;;;;;3.83;2.50;;;;;;;;;;5058446;28;20067;-74
2021/12/02 16:23:34;;;;;;;5.78;2.55;;;;;;;;;;5092228;28;20044;-74
2021/12/02 16:26:00;;;;;;;6.32;2.60;;;;;;;;;;5060634;28;20127;-74
2021/12/02 16:28:27;;;;;;;3.30;2.30;;;;;;;;;;5058815;28;20079;-77
2021/12/02 16:30:53;;;;;;;3.40;2.22;;;;;;;;;;5075344;28;20480;-74
2021/12/02 16:33:19;;;;;;;3.50;2.53;;;;;;;;;;5060811;28;20036;-76
2021/12/02 16:35:45;;;;;;;4.97;2.78;;;;;;;;;;5091227;28;20092;-76
2021/12/02 16:38:11;;;;;;;5.18;3.03;;;;;;;;;;5096017;28;20054;-80
2021/12/02 16:40:38;;;;;;;4.28;3.08;;;;;;;;;;5059014;28;20459;-76
2021/12/02 16:43:05;;;;;;;5.82;3.20;;;;;;;;;;5084026;28;20063;-76
2021/12/02 16:45:43;;;;;;;6.43;3.30;;;;;;;;;;5078934;28;20044;-76
2021/12/02 16:48:10;;;;;;;6.70;3.80;;;;;;;;;;5075382;28;20376;-75
2021/12/02 16:50:41;;;;;;;6.97;3.35;;;;;;;;;;5066588;28;20051;-76
2021/12/02 16:53:08;;;;;;;6.40;2.60;;;;;;;;;;5075469;28;20503;-77
2021/12/02 16:55:35;;;;;;;5.47;3.00;;;;;;;;;;5058236;28;20056;-76
2021/12/02 16:58:01;;;;;;;4.90;2.20;;;;;;;;;;5057910;28;20142;-76
2021/12/02 17:00:29;;;;;;;7.47;1.88;;;;;;;;;;5057494;28;20358;-76
2021/12/02 17:02:55;;;;;;;4.00;1.40;;;;;;;;;;5075204;28;20041;-75
2021/12/02 17:05:21;;;;;;;4.10;1.35;;;;;;;;;;5076292;28;20081;-76
2021/12/02 17:07:48;;;;;;;6.68;1.50;;;;;;;;;;5076881;28;20101;-76
2021/12/02 17:10:21;;;;;;;5.82;1.35;;;;;;;;;;5060090;28;20474;-76
2021/12/02 17:12:47;;;;;;;3.40;1.10;;;;;;;;;;5057524;28;20048;-77
2021/12/02 17:15:15;;;;;;;4.75;1.50;;;;;;;;;;5057554;28;20102;-76
2021/12/02 17:17:41;;;;;;;3.13;2.03;;;;;;;;;;5057385;28;20056;-76
2021/12/02 17:20:18;;;;;;;1.85;1.30;;;;;;;;;;5057761;28;20045;-81